sensor_id;sensor_type;location;lat;lon;timestamp;pressure;altitude;pressure_sealevel;temperature;humidity
41886;BME280;27567;43.084;25.616;2022-07-22T00:01:42;98064.19;;;22.78;100.00
41886;BME280;27567;43.084;25.616;2022-07-22T00:04:26;98068.03;;;22.77;100.00
41886;BME280;27567;43.084;25.616;2022-07-22T00:07:10;98069.34;;;22.79;100.00
41886;BME280;27567;43.084;25.616;2022-07-22T00:09:54;98071.56;;;22.77;100.00
41886;BME280;27567;43.084;25.616;2022-07-22T00:12:38;98063.47;;;22.67;100.00
41886;BME280;27567;43.084;25.616;2022-07-22T00:15:23;98069.47;;;22.69;100.00
41886;BME280;27567;43.084;25.616;2022-07-22T00:18:07;98075.22;;;22.67;100.00
41886;BME280;27567;43.084;25.616;2022-07-22T00:20:51;98071.69;;;22.67;100.00
41886;BME280;27567;43.084;25.616;2022-07-22T00:23:35;98066.81;;;22.59;100.00
41886;BME280;27567;43.084;25.616;2022-07-22T00:26:19;98079.50;;;22.49;100.00
41886;BME280;27567;43.084;25.616;2022-07-22T00:29:04;98076.16;;;22.52;100.00
41886;BME280;27567;43.084;25.616;2022-07-22T00:31:48;98089.88;;;22.42;100.00
41886;BME280;27567;43.084;25.616;2022-07-22T00:34:32;98096.44;;;22.41;100.00
41886;BME280;27567;43.084;25.616;2022-07-22T00:37:16;98094.25;;;22.48;100.00
41886;BME280;27567;43.084;25.616;2022-07-22T00:40:00;98088.00;;;22.43;100.00
41886;BME280;27567;43.084;25.616;2022-07-22T00:42:45;98090.97;;;22.46;100.00
41886;BME280;27567;43.084;25.616;2022-07-22T00:45:29;98094.84;;;22.35;100.00
41886;BME280;27567;43.084;25.616;2022-07-22T00:48:13;98089.38;;;22.35;100.00
41886;BME280;27567;43.084;25.616;2022-07-22T00:50:56;98091.13;;;22.26;100.00
41886;BME280;27567;43.084;25.616;2022-07-22T00:53:40;98098.72;;;22.29;100.00
41886;BME280;27567;43.084;25.616;2022-07-22T00:56:25;98098.41;;;22.35;100.00
41886;BME280;27567;43.084;25.616;2022-07-22T00:59:13;98095.53;;;22.16;100.00
41886;BME280;27567;43.084;25.616;2022-07-22T01:01:57;98093.53;;;21.87;100.00
41886;BME280;27567;43.084;25.616;2022-07-22T01:04:42;98101.19;;;21.85;100.00
41886;BME280;27567;43.084;25.616;2022-07-22T01:07:26;98105.31;;;21.77;100.00
41886;BME280;27567;43.084;25.616;2022-07-22T01:10:10;98101.53;;;21.73;100.00
41886;BME280;27567;43.084;25.616;2022-07-22T01:12:54;98107.75;;;21.79;100.00
41886;BME280;27567;43.084;25.616;2022-07-22T01:15:38;98106.41;;;21.76;100.00
41886;BME280;27567;43.084;25.616;2022-07-22T01:18:22;98105.66;;;21.60;100.00
41886;BME280;27567;43.084;25.616;2022-07-22T01:21:08;98105.38;;;21.67;100.00
41886;BME280;27567;43.084;25.616;2022-07-22T01:23:52;98107.59;;;21.65;100.00
41886;BME280;27567;43.084;25.616;2022-07-22T01:26:36;98111.41;;;21.64;100.00
41886;BME280;27567;43.084;25.616;2022-07-22T01:29:20;98114.91;;;21.70;100.00
41886;BME280;27567;43.084;25.616;2022-07-22T01:32:04;98108.94;;;21.57;100.00
41886;BME280;27567;43.084;25.616;2022-07-22T01:34:48;98109.78;;;21.53;100.00
41886;BME280;27567;43.084;25.616;2022-07-22T01:37:33;98109.84;;;21.32;100.00
41886;BME280;27567;43.084;25.616;2022-07-22T01:40:17;98110.41;;;21.24;100.00
41886;BME280;27567;43.084;25.616;2022-07-22T01:43:01;98099.25;;;21.25;100.00
41886;BME280;27567;43.084;25.616;2022-07-22T01:45:48;98107.69;;;21.29;100.00
41886;BME280;27567;43.084;25.616;2022-07-22T01:48:32;98112.34;;;21.23;100.00
41886;BME280;27567;43.084;25.616;2022-07-22T01:51:17;98104.94;;;21.34;100.00
41886;BME280;27567;43.084;25.616;2022-07-22T01:54:01;98100.59;;;21.28;100.00
41886;BME280;27567;43.084;25.616;2022-07-22T01:56:45;98094.34;;;21.22;100.00
41886;BME280;27567;43.084;25.616;2022-07-22T01:59:29;98095.19;;;21.17;100.00
41886;BME280;27567;43.084;25.616;2022-07-22T02:02:12;98101.50;;;21.02;100.00
41886;BME280;27567;43.084;25.616;2022-07-22T02:04:57;98093.56;;;21.01;100.00
41886;BME280;27567;43.084;25.616;2022-07-22T02:07:40;98096.31;;;21.01;100.00
41886;BME280;27567;43.084;25.616;2022-07-22T02:10:24;98096.28;;;21.11;100.00
41886;BME280;27567;43.084;25.616;2022-07-22T02:13:08;98097.94;;;21.12;100.00
41886;BME280;27567;43.084;25.616;2022-07-22T02:15:52;98094.09;;;21.19;100.00
41886;BME280;27567;43.084;25.616;2022-07-22T02:18:36;98085.63;;;21.20;100.00
41886;BME280;27567;43.084;25.616;2022-07-22T02:21:21;98095.69;;;21.20;100.00
41886;BME280;27567;43.084;25.616;2022-07-22T02:24:05;98083.75;;;21.05;100.00
41886;BME280;27567;43.084;25.616;2022-07-22T02:26:49;98086.19;;;21.12;100.00
41886;BME280;27567;43.084;25.616;2022-07-22T02:29:33;98096.03;;;20.97;100.00
41886;BME280;27567;43.084;25.616;2022-07-22T02:32:17;98094.13;;;21.03;100.00
41886;BME280;27567;43.084;25.616;2022-07-22T02:35:01;98100.13;;;21.05;100.00
41886;BME280;27567;43.084;25.616;2022-07-22T02:37:46;98096.59;;;20.99;100.00
41886;BME280;27567;43.084;25.616;2022-07-22T02:40:30;98094.16;;;20.82;100.00
41886;BME280;27567;43.084;25.616;2022-07-22T02:43:14;98103.13;;;20.62;100.00
41886;BME280;27567;43.084;25.616;2022-07-22T02:48:42;98104.22;;;20.46;100.00
41886;BME280;27567;43.084;25.616;2022-07-22T02:51:26;98108.34;;;20.43;100.00
41886;BME280;27567;43.084;25.616;2022-07-22T02:54:10;98099.59;;;20.31;100.00
41886;BME280;27567;43.084;25.616;2022-07-22T02:56:54;98098.25;;;20.38;100.00
41886;BME280;27567;43.084;25.616;2022-07-22T02:59:38;98100.16;;;20.43;100.00
41886;BME280;27567;43.084;25.616;2022-07-22T03:02:22;98102.34;;;20.36;100.00
41886;BME280;27567;43.084;25.616;2022-07-22T03:05:06;98105.59;;;20.33;100.00
41886;BME280;27567;43.084;25.616;2022-07-22T03:07:51;98099.88;;;20.39;100.00
41886;BME280;27567;43.084;25.616;2022-07-22T03:10:35;98101.25;;;20.32;100.00
41886;BME280;27567;43.084;25.616;2022-07-22T03:13:19;98103.41;;;20.35;100.00
41886;BME280;27567;43.084;25.616;2022-07-22T03:16:03;98107.22;;;20.34;100.00
41886;BME280;27567;43.084;25.616;2022-07-22T03:18:48;98111.31;;;20.31;100.00
41886;BME280;27567;43.084;25.616;2022-07-22T03:21:31;98106.94;;;20.25;100.00
41886;BME280;27567;43.084;25.616;2022-07-22T03:24:15;98107.22;;;20.28;100.00
41886;BME280;27567;43.084;25.616;2022-07-22T03:27:00;98112.94;;;20.37;100.00
41886;BME280;27567;43.084;25.616;2022-07-22T03:29:45;98103.41;;;20.55;100.00
41886;BME280;27567;43.084;25.616;2022-07-22T03:32:29;98104.78;;;20.68;100.00
41886;BME280;27567;43.084;25.616;2022-07-22T03:35:13;98111.31;;;20.83;100.00
41886;BME280;27567;43.084;25.616;2022-07-22T03:37:57;98106.16;;;20.86;100.00
41886;BME280;27567;43.084;25.616;2022-07-22T03:40:41;98110.75;;;20.91;100.00
41886;BME280;27567;43.084;25.616;2022-07-22T03:43:25;98118.94;;;20.86;100.00
41886;BME280;27567;43.084;25.616;2022-07-22T03:46:09;98116.78;;;20.78;100.00
41886;BME280;27567;43.084;25.616;2022-07-22T03:48:53;98120.28;;;20.73;100.00
41886;BME280;27567;43.084;25.616;2022-07-22T03:51:37;98120.31;;;20.68;100.00
41886;BME280;27567;43.084;25.616;2022-07-22T03:54:21;98123.56;;;20.75;100.00
41886;BME280;27567;43.084;25.616;2022-07-22T03:57:05;98128.22;;;20.80;100.00
41886;BME280;27567;43.084;25.616;2022-07-22T03:59:49;98131.50;;;20.82;100.00
41886;BME280;27567;43.084;25.616;2022-07-22T04:02:33;98141.28;;;20.88;100.00
41886;BME280;27567;43.084;25.616;2022-07-22T04:05:17;98145.63;;;20.84;100.00
41886;BME280;27567;43.084;25.616;2022-07-22T04:08:01;98153.28;;;20.77;100.00
41886;BME280;27567;43.084;25.616;2022-07-22T04:10:45;98160.63;;;20.81;100.00
41886;BME280;27567;43.084;25.616;2022-07-22T04:13:29;98159.25;;;20.89;100.00
41886;BME280;27567;43.084;25.616;2022-07-22T04:16:13;98163.06;;;20.83;100.00
41886;BME280;27567;43.084;25.616;2022-07-22T04:18:57;98164.16;;;21.02;100.00
41886;BME280;27567;43.084;25.616;2022-07-22T04:21:41;98157.34;;;21.05;100.00
41886;BME280;27567;43.084;25.616;2022-07-22T04:24:26;98160.56;;;21.23;100.00
41886;BME280;27567;43.084;25.616;2022-07-22T04:27:09;98156.75;;;21.24;100.00
41886;BME280;27567;43.084;25.616;2022-07-22T04:29:54;98163.28;;;21.28;100.00
41886;BME280;27567;43.084;25.616;2022-07-22T04:32:38;98172.81;;;21.36;100.00
41886;BME280;27567;43.084;25.616;2022-07-22T04:35:21;98169.53;;;21.33;100.00
41886;BME280;27567;43.084;25.616;2022-07-22T04:38:05;98167.88;;;21.48;100.00
41886;BME280;27567;43.084;25.616;2022-07-22T04:40:50;98173.59;;;21.52;100.00
41886;BME280;27567;43.084;25.616;2022-07-22T04:43:35;98173.84;;;21.66;100.00
41886;BME280;27567;43.084;25.616;2022-07-22T04:46:19;98179.28;;;21.76;100.00
41886;BME280;27567;43.084;25.616;2022-07-22T04:49:02;98182.44;;;21.99;100.00
41886;BME280;27567;43.084;25.616;2022-07-22T04:51:46;98184.31;;;22.09;100.00
41886;BME280;27567;43.084;25.616;2022-07-22T04:54:30;98185.09;;;22.09;100.00
41886;BME280;27567;43.084;25.616;2022-07-22T04:57:14;98186.97;;;22.19;100.00
41886;BME280;27567;43.084;25.616;2022-07-22T04:59:58;98190.00;;;22.12;100.00
41886;BME280;27567;43.084;25.616;2022-07-22T05:02:42;98192.28;;;22.40;100.00
41886;BME280;27567;43.084;25.616;2022-07-22T05:05:26;98199.88;;;22.58;100.00
41886;BME280;27567;43.084;25.616;2022-07-22T05:08:11;98194.41;;;22.58;100.00
41886;BME280;27567;43.084;25.616;2022-07-22T05:10:55;98194.81;;;22.76;100.00
41886;BME280;27567;43.084;25.616;2022-07-22T05:13:39;98197.69;;;22.95;100.00
41886;BME280;27567;43.084;25.616;2022-07-22T05:16:23;98188.50;;;22.80;100.00
41886;BME280;27567;43.084;25.616;2022-07-22T05:19:07;98199.78;;;23.03;100.00
41886;BME280;27567;43.084;25.616;2022-07-22T05:21:51;98187.63;;;23.20;100.00
41886;BME280;27567;43.084;25.616;2022-07-22T05:24:35;98208.13;;;23.22;100.00
41886;BME280;27567;43.084;25.616;2022-07-22T05:27:20;98207.91;;;23.14;100.00
41886;BME280;27567;43.084;25.616;2022-07-22T05:30:04;98210.31;;;23.15;100.00
41886;BME280;27567;43.084;25.616;2022-07-22T05:32:48;98209.88;;;23.37;100.00
41886;BME280;27567;43.084;25.616;2022-07-22T05:35:32;98205.03;;;23.29;100.00
41886;BME280;27567;43.084;25.616;2022-07-22T05:38:16;98209.31;;;23.65;100.00
41886;BME280;27567;43.084;25.616;2022-07-22T05:41:01;98207.44;;;23.84;100.00
41886;BME280;27567;43.084;25.616;2022-07-22T05:43:45;98207.69;;;23.88;100.00
41886;BME280;27567;43.084;25.616;2022-07-22T05:46:29;98199.00;;;23.81;100.00
41886;BME280;27567;43.084;25.616;2022-07-22T05:49:13;98202.66;;;24.20;100.00
41886;BME280;27567;43.084;25.616;2022-07-22T05:51:57;98211.91;;;24.24;100.00
41886;BME280;27567;43.084;25.616;2022-07-22T05:54:44;98215.19;;;24.26;100.00
41886;BME280;27567;43.084;25.616;2022-07-22T05:57:28;98219.22;;;24.28;100.00
41886;BME280;27567;43.084;25.616;2022-07-22T06:00:12;98222.19;;;24.32;100.00
41886;BME280;27567;43.084;25.616;2022-07-22T06:02:57;98221.44;;;24.26;100.00
41886;BME280;27567;43.084;25.616;2022-07-22T06:05:40;98218.06;;;24.54;100.00
41886;BME280;27567;43.084;25.616;2022-07-22T06:08:24;98221.31;;;24.94;100.00
41886;BME280;27567;43.084;25.616;2022-07-22T06:11:08;98221.41;;;25.36;100.00
41886;BME280;27567;43.084;25.616;2022-07-22T06:13:52;98229.19;;;25.48;100.00
41886;BME280;27567;43.084;25.616;2022-07-22T06:16:37;98219.97;;;25.72;100.00
41886;BME280;27567;43.084;25.616;2022-07-22T06:19:21;98225.03;;;25.92;100.00
41886;BME280;27567;43.084;25.616;2022-07-22T06:22:05;98231.13;;;25.89;100.00
41886;BME280;27567;43.084;25.616;2022-07-22T06:24:54;98233.69;;;26.14;100.00
41886;BME280;27567;43.084;25.616;2022-07-22T06:27:38;98241.72;;;26.24;100.00
41886;BME280;27567;43.084;25.616;2022-07-22T06:30:21;98241.13;;;26.64;100.00
41886;BME280;27567;43.084;25.616;2022-07-22T06:33:06;98235.28;;;27.02;100.00
41886;BME280;27567;43.084;25.616;2022-07-22T06:35:50;98227.72;;;27.08;100.00
41886;BME280;27567;43.084;25.616;2022-07-22T06:38:34;98230.38;;;27.22;100.00
41886;BME280;27567;43.084;25.616;2022-07-22T06:41:18;98233.50;;;27.52;100.00
41886;BME280;27567;43.084;25.616;2022-07-22T06:44:03;98225.88;;;27.89;100.00
41886;BME280;27567;43.084;25.616;2022-07-22T06:46:48;98237.47;;;27.68;100.00
41886;BME280;27567;43.084;25.616;2022-07-22T06:49:32;98235.50;;;27.69;100.00
41886;BME280;27567;43.084;25.616;2022-07-22T06:52:16;98238.19;;;27.51;100.00
41886;BME280;27567;43.084;25.616;2022-07-22T06:55:00;98235.59;;;27.55;100.00
41886;BME280;27567;43.084;25.616;2022-07-22T06:57:44;98240.16;;;27.59;100.00
41886;BME280;27567;43.084;25.616;2022-07-22T07:00:28;98247.00;;;27.62;100.00
41886;BME280;27567;43.084;25.616;2022-07-22T07:03:12;98242.03;;;27.82;100.00
41886;BME280;27567;43.084;25.616;2022-07-22T07:05:57;98245.13;;;27.80;100.00
41886;BME280;27567;43.084;25.616;2022-07-22T07:08:41;98233.53;;;28.01;100.00
41886;BME280;27567;43.084;25.616;2022-07-22T07:11:25;98232.44;;;28.11;100.00
41886;BME280;27567;43.084;25.616;2022-07-22T07:14:09;98238.81;;;28.29;100.00
41886;BME280;27567;43.084;25.616;2022-07-22T07:16:53;98237.50;;;28.44;100.00
41886;BME280;27567;43.084;25.616;2022-07-22T07:19:37;98242.22;;;28.52;100.00
41886;BME280;27567;43.084;25.616;2022-07-22T07:22:21;98245.00;;;28.78;100.00
41886;BME280;27567;43.084;25.616;2022-07-22T07:25:07;98244.00;;;29.09;100.00
41886;BME280;27567;43.084;25.616;2022-07-22T07:27:51;98242.19;;;29.22;98.81
41886;BME280;27567;43.084;25.616;2022-07-22T07:30:36;98243.84;;;29.15;100.00
41886;BME280;27567;43.084;25.616;2022-07-22T07:33:20;98243.78;;;29.50;95.05
41886;BME280;27567;43.084;25.616;2022-07-22T07:36:05;98242.38;;;29.74;89.69
41886;BME280;27567;43.084;25.616;2022-07-22T07:38:49;98247.19;;;29.56;90.60
41886;BME280;27567;43.084;25.616;2022-07-22T07:41:34;98249.47;;;29.53;88.75
41886;BME280;27567;43.084;25.616;2022-07-22T07:44:18;98249.06;;;28.99;93.79
41886;BME280;27567;43.084;25.616;2022-07-22T07:47:03;98242.22;;;29.14;92.39
41886;BME280;27567;43.084;25.616;2022-07-22T07:49:47;98250.34;;;28.92;90.79
41886;BME280;27567;43.084;25.616;2022-07-22T07:52:39;98247.59;;;28.92;90.79
41886;BME280;27567;43.084;25.616;2022-07-22T07:55:24;98250.47;;;29.22;89.83
41886;BME280;27567;43.084;25.616;2022-07-22T07:58:08;98247.41;;;29.24;86.69
41886;BME280;27567;43.084;25.616;2022-07-22T08:00:52;98262.63;;;29.30;86.91
41886;BME280;27567;43.084;25.616;2022-07-22T08:03:37;98263.94;;;29.50;86.78
41886;BME280;27567;43.084;25.616;2022-07-22T08:06:21;98261.34;;;29.45;84.78
41886;BME280;27567;43.084;25.616;2022-07-22T08:09:05;98266.25;;;29.22;86.87
41886;BME280;27567;43.084;25.616;2022-07-22T08:11:50;98261.03;;;29.47;86.22
41886;BME280;27567;43.084;25.616;2022-07-22T08:14:34;98261.50;;;29.49;87.15
41886;BME280;27567;43.084;25.616;2022-07-22T08:17:18;98264.47;;;29.74;83.13
41886;BME280;27567;43.084;25.616;2022-07-22T08:20:04;98259.13;;;30.16;80.84
41886;BME280;27567;43.084;25.616;2022-07-22T08:22:49;98268.84;;;30.22;80.28
41886;BME280;27567;43.084;25.616;2022-07-22T08:25:34;98257.28;;;30.50;76.18
41886;BME280;27567;43.084;25.616;2022-07-22T08:28:18;98252.25;;;30.73;71.30
41886;BME280;27567;43.084;25.616;2022-07-22T08:31:02;98256.38;;;30.37;77.51
41886;BME280;27567;43.084;25.616;2022-07-22T08:33:46;98260.53;;;30.22;78.34
41886;BME280;27567;43.084;25.616;2022-07-22T08:36:30;98261.22;;;30.19;77.18
41886;BME280;27567;43.084;25.616;2022-07-22T08:39:15;98260.47;;;30.10;77.92
41886;BME280;27567;43.084;25.616;2022-07-22T08:42:00;98264.03;;;29.63;80.42
41886;BME280;27567;43.084;25.616;2022-07-22T08:44:44;98267.19;;;29.44;82.49
41886;BME280;27567;43.084;25.616;2022-07-22T08:47:29;98267.53;;;29.24;83.55
41886;BME280;27567;43.084;25.616;2022-07-22T08:50:13;98269.81;;;29.14;84.75
41886;BME280;27567;43.084;25.616;2022-07-22T08:52:58;98269.78;;;29.31;85.18
41886;BME280;27567;43.084;25.616;2022-07-22T08:55:43;98281.47;;;29.28;81.50
41886;BME280;27567;43.084;25.616;2022-07-22T08:58:27;98276.59;;;29.51;81.61
41886;BME280;27567;43.084;25.616;2022-07-22T09:01:14;98283.63;;;29.96;77.89
41886;BME280;27567;43.084;25.616;2022-07-22T09:03:59;98276.16;;;30.27;73.24
41886;BME280;27567;43.084;25.616;2022-07-22T09:06:47;98284.06;;;29.51;75.17
41886;BME280;27567;43.084;25.616;2022-07-22T09:09:33;98282.81;;;29.39;76.42
41886;BME280;27567;43.084;25.616;2022-07-22T09:12:17;98281.78;;;29.53;76.41
41886;BME280;27567;43.084;25.616;2022-07-22T09:15:03;98277.28;;;29.39;74.76
41886;BME280;27567;43.084;25.616;2022-07-22T09:17:47;98279.97;;;29.57;72.40
41886;BME280;27567;43.084;25.616;2022-07-22T09:20:37;98273.94;;;29.64;71.92
41886;BME280;27567;43.084;25.616;2022-07-22T09:23:21;98274.59;;;29.69;68.57
41886;BME280;27567;43.084;25.616;2022-07-22T09:26:11;98278.72;;;30.02;64.83
41886;BME280;27567;43.084;25.616;2022-07-22T09:29:13;98284.28;;;30.23;62.70
41886;BME280;27567;43.084;25.616;2022-07-22T09:31:57;98286.09;;;30.19;60.29
41886;BME280;27567;43.084;25.616;2022-07-22T09:34:43;98278.72;;;30.32;57.84
41886;BME280;27567;43.084;25.616;2022-07-22T09:37:27;98284.00;;;30.16;58.50
41886;BME280;27567;43.084;25.616;2022-07-22T09:40:36;98287.00;;;30.02;56.20
41886;BME280;27567;43.084;25.616;2022-07-22T09:43:20;98280.41;;;30.76;54.20
41886;BME280;27567;43.084;25.616;2022-07-22T09:46:05;98280.38;;;30.97;50.57
41886;BME280;27567;43.084;25.616;2022-07-22T09:48:52;98286.06;;;30.79;48.62
41886;BME280;27567;43.084;25.616;2022-07-22T09:51:40;98283.56;;;30.65;50.44
41886;BME280;27567;43.084;25.616;2022-07-22T09:54:25;98282.28;;;30.63;46.87
41886;BME280;27567;43.084;25.616;2022-07-22T09:57:11;98278.84;;;30.66;45.94
41886;BME280;27567;43.084;25.616;2022-07-22T09:59:56;98270.28;;;30.80;44.31
41886;BME280;27567;43.084;25.616;2022-07-22T10:02:47;98274.38;;;30.73;45.06
41886;BME280;27567;43.084;25.616;2022-07-22T10:05:38;98277.69;;;30.67;46.04
41886;BME280;27567;43.084;25.616;2022-07-22T10:08:24;98275.84;;;30.71;47.72
41886;BME280;27567;43.084;25.616;2022-07-22T10:11:10;98275.84;;;30.92;40.15
41886;BME280;27567;43.084;25.616;2022-07-22T10:13:58;98272.69;;;31.02;38.63
41886;BME280;27567;43.084;25.616;2022-07-22T10:16:43;98271.22;;;31.39;38.03
41886;BME280;27567;43.084;25.616;2022-07-22T10:19:28;98260.97;;;31.52;35.73
41886;BME280;27567;43.084;25.616;2022-07-22T10:22:45;98268.22;;;32.93;33.54
41886;BME280;27567;43.084;25.616;2022-07-22T10:25:53;98274.06;;;34.80;31.42
41886;BME280;27567;43.084;25.616;2022-07-22T10:28:38;98277.47;;;36.79;28.80
41886;BME280;27567;43.084;25.616;2022-07-22T10:31:23;98279.38;;;37.02;27.11
41886;BME280;27567;43.084;25.616;2022-07-22T10:34:09;98271.16;;;35.78;28.90
41886;BME280;27567;43.084;25.616;2022-07-22T10:36:56;98276.25;;;35.96;28.56
41886;BME280;27567;43.084;25.616;2022-07-22T10:40:18;98277.34;;;38.93;25.68
41886;BME280;27567;43.084;25.616;2022-07-22T10:43:09;98276.03;;;37.61;25.98
41886;BME280;27567;43.084;25.616;2022-07-22T10:45:55;98270.28;;;40.55;23.46
41886;BME280;27567;43.084;25.616;2022-07-22T10:51:25;98282.06;;;41.28;22.27
41886;BME280;27567;43.084;25.616;2022-07-22T10:54:10;98276.16;;;44.71;19.61
41886;BME280;27567;43.084;25.616;2022-07-22T10:56:55;98266.13;;;45.77;18.20
41886;BME280;27567;43.084;25.616;2022-07-22T10:59:53;98277.22;;;46.04;17.77
41886;BME280;27567;43.084;25.616;2022-07-22T11:02:38;98271.34;;;48.26;16.02
41886;BME280;27567;43.084;25.616;2022-07-22T11:05:26;98275.16;;;46.05;16.45
41886;BME280;27567;43.084;25.616;2022-07-22T11:08:11;98267.53;;;42.74;17.79
41886;BME280;27567;43.084;25.616;2022-07-22T11:10:55;98259.72;;;42.89;18.11
41886;BME280;27567;43.084;25.616;2022-07-22T11:13:41;98260.41;;;44.06;17.31
41886;BME280;27567;43.084;25.616;2022-07-22T11:16:28;98252.19;;;47.30;14.90
41886;BME280;27567;43.084;25.616;2022-07-22T11:19:12;98254.91;;;46.36;15.51
41886;BME280;27567;43.084;25.616;2022-07-22T11:22:02;98248.22;;;47.15;14.94
41886;BME280;27567;43.084;25.616;2022-07-22T11:24:49;98249.81;;;47.29;14.30
41886;BME280;27567;43.084;25.616;2022-07-22T11:27:33;98249.72;;;47.93;13.80
41886;BME280;27567;43.084;25.616;2022-07-22T11:30:17;98237.28;;;45.32;14.71
41886;BME280;27567;43.084;25.616;2022-07-22T11:33:02;98233.06;;;40.01;17.78
41886;BME280;27567;43.084;25.616;2022-07-22T11:36:07;98245.75;;;40.74;17.90
41886;BME280;27567;43.084;25.616;2022-07-22T11:38:54;98247.94;;;38.51;18.66
41886;BME280;27567;43.084;25.616;2022-07-22T11:41:39;98235.75;;;38.88;19.09
41886;BME280;27567;43.084;25.616;2022-07-22T11:44:26;98240.31;;;39.73;18.39
41886;BME280;27567;43.084;25.616;2022-07-22T11:47:11;98237.38;;;41.41;17.32
41886;BME280;27567;43.084;25.616;2022-07-22T11:49:55;98236.22;;;41.88;16.99
41886;BME280;27567;43.084;25.616;2022-07-22T11:52:51;98244.94;;;40.77;17.59
41886;BME280;27567;43.084;25.616;2022-07-22T11:55:36;98238.31;;;39.80;17.76
41886;BME280;27567;43.084;25.616;2022-07-22T11:58:45;98232.59;;;40.53;17.33
41886;BME280;27567;43.084;25.616;2022-07-22T12:01:29;98236.63;;;40.41;17.21
41886;BME280;27567;43.084;25.616;2022-07-22T12:04:20;98229.47;;;39.75;17.70
41886;BME280;27567;43.084;25.616;2022-07-22T12:07:05;98232.66;;;41.24;16.50
41886;BME280;27567;43.084;25.616;2022-07-22T12:09:50;98239.28;;;40.92;16.48
41886;BME280;27567;43.084;25.616;2022-07-22T12:12:39;98223.78;;;42.27;15.93
41886;BME280;27567;43.084;25.616;2022-07-22T12:15:24;98226.06;;;42.43;15.48
41886;BME280;27567;43.084;25.616;2022-07-22T12:18:22;98223.47;;;39.65;17.66
41886;BME280;27567;43.084;25.616;2022-07-22T12:21:07;98221.66;;;37.58;19.14
41886;BME280;27567;43.084;25.616;2022-07-22T12:23:57;98220.25;;;39.56;18.11
41886;BME280;27567;43.084;25.616;2022-07-22T12:29:41;98220.47;;;40.78;16.56
41886;BME280;27567;43.084;25.616;2022-07-22T12:32:27;98215.69;;;40.60;16.09
41886;BME280;27567;43.084;25.616;2022-07-22T12:35:14;98215.19;;;41.54;16.17
41886;BME280;27567;43.084;25.616;2022-07-22T12:38:06;98215.53;;;42.09;15.74
41886;BME280;27567;43.084;25.616;2022-07-22T12:40:51;98209.41;;;41.20;16.38
41886;BME280;27567;43.084;25.616;2022-07-22T12:43:38;98218.88;;;40.77;16.39
41886;BME280;27567;43.084;25.616;2022-07-22T12:46:22;98205.00;;;38.29;17.92
41886;BME280;27567;43.084;25.616;2022-07-22T12:49:06;98204.28;;;37.83;18.53
41886;BME280;27567;43.084;25.616;2022-07-22T12:52:12;98196.56;;;41.75;16.07
41886;BME280;27567;43.084;25.616;2022-07-22T12:54:57;98190.78;;;42.62;15.25
41886;BME280;27567;43.084;25.616;2022-07-22T12:57:41;98199.59;;;41.46;16.04
41886;BME280;27567;43.084;25.616;2022-07-22T13:00:29;98200.13;;;42.59;15.17
41886;BME280;27567;43.084;25.616;2022-07-22T13:03:13;98210.00;;;43.02;14.76
41886;BME280;27567;43.084;25.616;2022-07-22T13:05:59;98208.75;;;42.03;15.28
41886;BME280;27567;43.084;25.616;2022-07-22T13:08:44;98203.03;;;42.79;15.00
41886;BME280;27567;43.084;25.616;2022-07-22T13:11:28;98209.81;;;41.74;15.41
41886;BME280;27567;43.084;25.616;2022-07-22T13:14:13;98200.06;;;42.94;15.50
41886;BME280;27567;43.084;25.616;2022-07-22T13:16:58;98205.59;;;41.97;15.35
41886;BME280;27567;43.084;25.616;2022-07-22T13:19:42;98199.72;;;41.81;15.70
41886;BME280;27567;43.084;25.616;2022-07-22T13:22:27;98202.25;;;42.48;15.20
41886;BME280;27567;43.084;25.616;2022-07-22T13:25:12;98202.25;;;42.48;15.33
41886;BME280;27567;43.084;25.616;2022-07-22T13:27:56;98200.75;;;43.57;14.19
41886;BME280;27567;43.084;25.616;2022-07-22T13:30:40;98200.53;;;43.16;14.61
41886;BME280;27567;43.084;25.616;2022-07-22T13:33:24;98201.25;;;41.85;15.23
41886;BME280;27567;43.084;25.616;2022-07-22T13:36:09;98202.22;;;41.08;16.20
41886;BME280;27567;43.084;25.616;2022-07-22T13:38:53;98205.56;;;41.52;15.96
41886;BME280;27567;43.084;25.616;2022-07-22T13:41:37;98202.63;;;41.70;15.71
41886;BME280;27567;43.084;25.616;2022-07-22T13:44:21;98204.69;;;42.77;15.07
41886;BME280;27567;43.084;25.616;2022-07-22T13:47:05;98189.31;;;42.54;14.93
41886;BME280;27567;43.084;25.616;2022-07-22T13:49:49;98208.25;;;43.12;14.54
41886;BME280;27567;43.084;25.616;2022-07-22T13:52:33;98200.50;;;42.61;14.82
41886;BME280;27567;43.084;25.616;2022-07-22T13:55:17;98209.19;;;43.33;14.16
41886;BME280;27567;43.084;25.616;2022-07-22T13:58:01;98202.22;;;42.83;14.71
41886;BME280;27567;43.084;25.616;2022-07-22T14:00:45;98191.88;;;41.57;15.34
41886;BME280;27567;43.084;25.616;2022-07-22T14:03:30;98204.03;;;41.92;15.46
41886;BME280;27567;43.084;25.616;2022-07-22T14:06:14;98199.13;;;42.42;14.55
41886;BME280;27567;43.084;25.616;2022-07-22T14:08:58;98200.13;;;43.93;13.56
41886;BME280;27567;43.084;25.616;2022-07-22T14:11:43;98189.97;;;44.19;13.63
41886;BME280;27567;43.084;25.616;2022-07-22T14:14:27;98196.75;;;44.02;13.86
41886;BME280;27567;43.084;25.616;2022-07-22T14:17:11;98201.81;;;45.11;13.24
41886;BME280;27567;43.084;25.616;2022-07-22T14:19:55;98189.03;;;44.06;14.13
41886;BME280;27567;43.084;25.616;2022-07-22T14:22:39;98190.47;;;44.34;13.97
41886;BME280;27567;43.084;25.616;2022-07-22T14:25:23;98199.59;;;44.82;13.64
41886;BME280;27567;43.084;25.616;2022-07-22T14:28:08;98200.56;;;44.55;14.01